Flight Track Log - Related Links

Times and Time Zones

All times are in EDT time to prevent confusion due to time zone crossing. See the AAL1459 flight status page for this flight to view local times or setup timezone preferences in your user account.

Time Position Orientation Groundspeed Altitude Reporting Facility
EDT Latitude Longitude Course Direction KTS MPH feet Rate Location/Type
Mon 02:28:18 PM 42.3667 -70.9667 280° West 163 188 900  Level KA90
Mon 02:29:30 PM 42.3833 -70.8833 75° East 228 262 2,700 2,761 Climbing KA90
Mon 02:30:00 PM 42.5555 -70.8111 340° North  Level FlightAware Approximate
Mon 02:31:00 PM 42.6246 -70.9181 308° West  Level FlightAware Approximate
Mon 02:31:14 PM 42.4653 -70.7711 45° Northeast 301 346 9,000  Level Boston Center
Mon 02:32:00 PM 42.6788 -71.0424 300° West  Level FlightAware Approximate
Mon 02:33:00 PM 42.7334 -71.1667 304° West  Level FlightAware Approximate
Mon 02:33:14 PM 42.5883 -70.9314 316° Northwest 360 414 13,700  Level Boston Center
Mon 02:34:00 PM 42.7708 -71.2993 280° West  Level FlightAware Approximate
Mon 02:34:14 PM 42.6567 -71.0539 307° West 378 435 17,000  Level Boston Center
Mon 02:36:14 PM 42.7864 -71.2944 306° West 389 448 21,800 2,200 Climbing Boston Center
Mon 02:37:14 PM 42.8047 -71.4525 279° West 394 453 23,600 1,750 Climbing Boston Center
Mon 02:39:00 PM 42.8144 -71.7102 278° West  Level FlightAware Approximate
Mon 02:40:14 PM 42.8475 -71.9531 278° West 449 517 28,800  Level Boston Center
Mon 02:41:14 PM 42.8625 -72.1200 277° West 449 517 30,800 1,767 Climbing Boston Center
Mon 02:43:00 PM 42.8833 -72.3759 270° West  Level FlightAware Approximate
Mon 02:43:14 PM 42.8964 -72.4572 270° West 449 517 34,100  Level Boston Center
Mon 02:44:14 PM 42.9131 -72.6186 278° West 449 517 35,800 1,550 Climbing Boston Center
Mon 02:45:14 PM 42.9189 -72.7717 273° West 435 501 37,200 1,100 Climbing Boston Center
Mon 02:46:14 PM 42.9308 -72.9336 276° West 429 494 38,000 400 Climbing Boston Center
Mon 02:47:14 PM 42.9489 -73.0756 280° West 424 488 38,000  Level Boston Center
Mon 02:48:14 PM 42.9603 -73.2372 276° West 429 494 38,000  Level Boston Center
Mon 02:49:14 PM 42.9694 -73.4106 274° West 424 488 38,000  Level Boston Center
Mon 02:50:14 PM 42.9806 -73.5667 276° West 424 488 38,000  Level Boston Center
Mon 02:52:14 PM 43.0061 -73.8853 276° West 424 488 38,000 -33 Level Boston Center
Mon 02:53:14 PM 43.0186 -74.0417 276° West 424 488 37,900  Descending Boston Center
Mon 02:55:14 PM 43.0428 -74.3633 276° West 424 488 38,000 25 Climbing Boston Center
Mon 02:57:14 PM 43.0661 -74.6853 276° West 424 488 38,000  Level Boston Center
Mon 02:59:00 PM 43.0817 -74.9418 275° West  Level FlightAware Approximate
Mon 02:59:14 PM 43.0864 -75.0103 275° West 424 488 38,000  Level Boston Center
Mon 03:01:00 PM 43.1012 -75.2670 275° West  Level FlightAware Approximate
Mon 03:02:14 PM 43.1183 -75.4839 275° West 429 494 38,000  Level Boston Center
Mon 03:03:14 PM 43.1286 -75.6436 275° West 429 494 38,000  Level Boston Center
Mon 03:04:14 PM 43.1383 -75.8092 275° West 429 494 38,000  Level Boston Center
Mon 03:09:26 PM 43.1606 -76.6581 272° West 428 493 38,000  Level Cleveland Center
Mon 03:10:26 PM 43.1575 -76.8178 269° West 423 487 38,000  Level Cleveland Center
Mon 03:11:27 PM 43.1586 -76.9828 271° West 428 493 38,000  Level Cleveland Center
Mon 03:12:25 PM 43.1575 -77.1450 270° West 428 493 38,000  Level Cleveland Center
Mon 03:13:25 PM 43.1558 -77.3075 269° West 428 493 38,000  Level Cleveland Center
Mon 03:15:00 PM 43.1516 -77.5423 269° West  Level FlightAware Approximate
Mon 03:16:24 PM 43.1519 -77.8000 269° West 433 498 38,000  Level Cleveland Center
Mon 03:17:55 PM 43.1333 -78.0333 264° West 430 495 38,000  Level Toronto Center
Mon 03:18:27 PM 43.1450 -78.1306 279° West 438 504 38,000  Level Cleveland Center
Mon 03:20:24 PM 43.1406 -78.4408 269° West 445 512 38,000  Level Cleveland Center
Mon 03:21:26 PM 43.1372 -78.6058 268° West 439 505 38,000  Level Cleveland Center
Mon 03:24:55 PM 43.1167 -79.1833 267° West 430 495 38,000  Level Toronto Center
Mon 03:26:55 PM 43.1000 -79.5167 266° West 440 506 38,000  Level Toronto Center
Mon 03:27:55 PM 43.0833 -79.6833 262° West 440 506 38,000  Level Toronto Center
Mon 03:28:55 PM 43.0833 -79.8333 270° West 440 506 38,000  Level Toronto Center
Mon 03:30:00 PM 43.0780 -79.9936 267° West  Level FlightAware Approximate
Mon 03:33:55 PM 43.0500 -80.6833 269° West 440 506 38,000  Level Toronto Center
Mon 03:34:55 PM 43.0333 -80.8500 262° West 440 506 38,000  Level Toronto Center
Mon 03:35:55 PM 43.0167 -81.0167 262° West 450 518 38,000  Level Toronto Center
Mon 03:37:00 PM 43.0379 -81.0287 267° West  Level FlightAware Approximate
Mon 03:37:00 PM 43.0172 -81.1770 270° West  Level FlightAware Approximate
Mon 03:37:49 PM 43.0350 -81.3586 270° West 437 503 38,000  Level Cleveland Center
Mon 03:38:00 PM 43.0326 -81.1765 269° West  Level FlightAware Approximate
Mon 03:38:49 PM 43.0294 -81.5175 267° West 432 497 38,000  Level Cleveland Center
Mon 03:39:00 PM 43.0298 -81.3245 269° West  Level FlightAware Approximate
Mon 03:39:49 PM 43.0258 -81.6881 268° West 444 511 38,000  Level Cleveland Center
Mon 03:40:50 PM 43.0222 -81.8553 268° West 444 511 38,000  Level Cleveland Center
Mon 03:41:48 PM 43.0200 -82.0286 269° West 444 511 38,000 -864 Level Cleveland Center
Mon 03:42:48 PM 43.0158 -82.1989 268° West 449 517 36,300 -1,736 Descending Cleveland Center
Mon 03:43:49 PM 43.0111 -82.3775 268° West 462 532 34,500 -1,087 Descending Cleveland Center
Mon 03:44:55 PM 43.0000 -82.5500 265° West 470 541 34,000 -248 Descending Toronto Center
Mon 03:45:50 PM 43.0008 -82.7294 270° West 467 537 34,000  Level Cleveland Center
Mon 03:46:50 PM 42.9953 -82.9053 268° West 467 537 34,000  Level Cleveland Center
Mon 03:48:48 PM 42.9836 -83.2594 268° West 469 540 34,000  Level Cleveland Center
Mon 03:49:48 PM 42.9772 -83.4381 267° West 469 540 34,000  Level Cleveland Center
Mon 03:50:50 PM 42.9706 -83.6164 267° West 474 545 34,000 -450 Level Cleveland Center
Mon 03:51:48 PM 42.9614 -83.7978 266° West 479 551 33,100 -966 Descending Cleveland Center
Mon 03:52:48 PM 42.9461 -83.9700 263° West 472 543 32,100 -942 Descending Cleveland Center
Mon 03:53:49 PM 42.9264 -84.1419 261° West 472 543 31,200 -685 Descending Cleveland Center
Mon 03:55:00 PM 42.8974 -84.3208 260° West  Level FlightAware Approximate
Mon 03:55:52 PM 42.8928 -84.4919 260° West 469 540 30,000  Level Chicago Center
Mon 03:56:54 PM 42.8739 -84.6669 262° West 469 540 29,200 -968 Descending Chicago Center
Mon 03:57:56 PM 42.8583 -84.8278 263° West 441 507 28,000 -571 Descending Chicago Center
Mon 03:59:00 PM 42.8386 -85.0175 262° West 424 488 28,000 -511 Level Chicago Center
Mon 04:01:04 PM 42.8047 -85.3325 262° West 419 482 26,400 -839 Descending Chicago Center
Mon 04:02:06 PM 42.7881 -85.4844 262° West 408 470 25,400 -968 Descending Chicago Center
Mon 04:03:08 PM 42.7628 -85.6300 257° West 396 456 24,400 -919 Descending Chicago Center
Mon 04:04:10 PM 42.7364 -85.7742 256° West 391 450 23,500 -960 Descending Chicago Center
Mon 04:05:13 PM 42.7108 -85.9144 256° West 383 441 22,400 -843 Descending Chicago Center
Mon 04:07:00 PM 42.6556 -86.1749 253° West  Level FlightAware Approximate
Mon 04:08:19 PM 42.6258 -86.3722 251° West 398 458 20,000  Level Chicago Center
Mon 04:10:23 PM 42.5714 -86.6644 256° West 398 458 17,300 -1,476 Descending Chicago Center
Mon 04:12:27 PM 42.5050 -86.9331 252° West 374 430 13,900 -1,677 Descending Chicago Center
Mon 04:13:29 PM 42.4617 -87.0864 249° West 364 419 12,100 -1,436 Descending Chicago Center
Mon 04:14:00 PM 42.4280 -87.1882 251° West  Level FlightAware Approximate
Mon 04:15:10 PM 42.4000 -87.3000 249° West 355 409 10,000  Level Chicago TRACON
Mon 04:16:35 PM 42.3572 -87.4639 251° West 349 402 10,000  Level Chicago Center
Mon 04:18:11 PM 42.2667 -87.6167 231° Southwest 316 364 10,000 -144 Level Chicago TRACON
Mon 04:18:40 PM 42.2367 -87.6436 214° Southwest 316 364 9,700 -1,121 Descending Chicago Center
Mon 04:19:42 PM 42.1631 -87.7189 217° Southwest 281 323 8,300 -1,210 Descending Chicago Center
Mon 04:20:44 PM 42.1036 -87.7844 219° Southwest 280 322 7,200 -629 Descending Chicago Center
Mon 04:21:46 PM 42.0747 -87.8614 243° Southwest 239 275 7,000 -97 Descending Chicago Center
Mon 04:22:48 PM 42.0711 -87.9406 267° West 217 250 7,000  Level Chicago Center
Mon 04:23:11 PM 42.0667 -87.9833 262° West 213 245 7,000 -217 Level Chicago TRACON
Mon 04:24:11 PM 42.0667 -88.0667 270° West 207 238 6,700 -750 Descending Chicago TRACON
Mon 04:25:11 PM 42.0667 -88.1333 270° West 204 235 5,500 -1,050 Descending Chicago TRACON
Mon 04:26:11 PM 42.0333 -88.2000 236° Southwest 208 239 4,600 -686 Descending Chicago TRACON
Mon 04:26:56 PM 42.0117 -88.1736 138° Southeast 200 230 4,300 -500 Descending Chicago Center
Mon 04:27:59 PM 41.9917 -88.1158 115° Southeast 183 211 3,700 -720 Descending Chicago Center
Mon 04:29:01 PM 41.9828 -88.0556 101° East 171 197 2,800 -902 Descending Chicago Center
Mon 04:30:12 PM 41.9833 -87.9833 89° East 142 163 1,700 -912 Descending Chicago TRACON
Mon 04:31:06 PM 41.9833 -87.9333 90° East 149 171 900 -889 Descending Chicago TRACON

Login

Don't have an account? Register now (free) for customized features, flight alerts, and more!